createdAt,value
2023-03-29T00:01:53.491Z,5.13
2023-03-29T00:04:20.934Z,4.80
2023-03-29T00:06:48.462Z,6.27
2023-03-29T00:09:15.723Z,6.30
2023-03-29T00:11:43.257Z,4.80
2023-03-29T00:14:10.491Z,6.73
2023-03-29T00:16:37.824Z,4.70
2023-03-29T00:19:05.626Z,6.40
2023-03-29T00:21:33.137Z,6.50
2023-03-29T00:24:00.401Z,7.27
2023-03-29T00:26:27.605Z,8.43
2023-03-29T00:28:56.113Z,7.70
2023-03-29T00:31:23.375Z,4.97
2023-03-29T00:33:50.643Z,5.13
2023-03-29T00:36:17.976Z,7.80
2023-03-29T00:38:45.337Z,5.83
2023-03-29T00:41:12.691Z,5.63
2023-03-29T00:43:56.592Z,5.97
2023-03-29T00:46:24.582Z,5.50
2023-03-29T00:48:53.569Z,4.93
2023-03-29T00:51:21.895Z,4.57
2023-03-29T00:53:54.956Z,7.13
2023-03-29T00:56:24.177Z,6.67
2023-03-29T00:59:00.385Z,4.43
2023-03-29T01:01:38.046Z,4.80
2023-03-29T01:04:08.915Z,6.67
2023-03-29T01:06:39.252Z,6.53
2023-03-29T01:09:08.721Z,8.80
2023-03-29T01:11:42.734Z,6.30
2023-03-29T01:14:15.641Z,5.03
2023-03-29T01:16:43.741Z,5.90
2023-03-29T01:19:13.681Z,6.70
2023-03-29T01:21:44.105Z,9.57
2023-03-29T01:24:30.324Z,7.50
2023-03-29T01:27:05.406Z,3.83
2023-03-29T01:29:53.995Z,5.47
2023-03-29T01:32:30.975Z,4.60
2023-03-29T01:35:10.151Z,4.77
2023-03-29T01:37:39.539Z,5.70
2023-03-29T01:40:28.168Z,3.90
2023-03-29T01:42:55.358Z,4.07
2023-03-29T01:45:29.588Z,6.73
2023-03-29T01:47:56.860Z,4.53
2023-03-29T01:50:36.873Z,6.23
2023-03-29T01:53:10.862Z,5.30
2023-03-29T01:55:40.348Z,5.03
2023-03-29T01:58:09.409Z,6.07
2023-03-29T02:00:37.182Z,4.57
2023-03-29T02:03:07.108Z,4.50
2023-03-29T02:05:35.024Z,5.53
2023-03-29T02:08:03.564Z,6.73
2023-03-29T02:10:32.612Z,6.57
2023-03-29T02:13:00.307Z,6.47
2023-03-29T02:15:28.099Z,8.20
2023-03-29T02:17:57.032Z,5.47
2023-03-29T02:20:24.846Z,5.73
2023-03-29T02:22:56.030Z,5.73
2023-03-29T02:25:24.459Z,5.73
2023-03-29T02:27:52.269Z,10.37
2023-03-29T02:30:21.013Z,7.67
2023-03-29T02:32:52.177Z,6.93
2023-03-29T02:35:27.852Z,5.40
2023-03-29T02:37:56.660Z,8.40
2023-03-29T02:40:26.112Z,5.63
2023-03-29T02:42:55.609Z,8.77
2023-03-29T02:45:24.047Z,8.33
2023-03-29T02:47:54.161Z,6.20
2023-03-29T02:50:24.712Z,5.87
2023-03-29T02:52:54.080Z,7.13
2023-03-29T02:55:23.528Z,5.53
2023-03-29T02:57:50.783Z,5.90
2023-03-29T03:00:19.654Z,4.80
2023-03-29T03:02:47.934Z,6.97
2023-03-29T03:05:15.348Z,6.27
2023-03-29T03:07:42.727Z,6.27
2023-03-29T03:10:11.068Z,7.93
2023-03-29T03:12:38.785Z,6.93
2023-03-29T03:15:06.693Z,5.43
2023-03-29T03:17:39.936Z,4.20
2023-03-29T03:20:12.753Z,7.07
2023-03-29T03:22:42.142Z,5.43
2023-03-29T03:25:12.963Z,6.10
2023-03-29T03:27:41.370Z,6.17
2023-03-29T03:30:09.066Z,6.63
2023-03-29T03:32:56.594Z,7.43
2023-03-29T03:35:56.978Z,5.07
2023-03-29T03:38:25.373Z,6.97
2023-03-29T03:40:58.093Z,6.53
2023-03-29T03:43:26.146Z,10.23
2023-03-29T03:45:53.815Z,7.27
2023-03-29T03:48:24.316Z,8.23
2023-03-29T03:51:29.696Z,4.50
2023-03-29T03:53:57.013Z,7.57
2023-03-29T03:56:36.018Z,6.60
2023-03-29T03:59:09.330Z,7.17
2023-03-29T04:01:53.664Z,10.37
2023-03-29T04:04:23.389Z,6.97
2023-03-29T04:07:07.313Z,6.87
2023-03-29T04:09:39.797Z,9.17
2023-03-29T04:12:18.991Z,7.53
2023-03-29T04:14:47.448Z,8.13
2023-03-29T04:17:21.468Z,5.70
2023-03-29T04:20:20.890Z,9.40
2023-03-29T04:22:48.755Z,6.87
2023-03-29T04:25:16.531Z,7.27
2023-03-29T04:28:13.260Z,8.17
2023-03-29T04:30:48.113Z,9.03
2023-03-29T04:33:21.015Z,7.80
2023-03-29T04:35:54.400Z,8.23
2023-03-29T04:38:23.567Z,6.67
2023-03-29T04:40:54.859Z,5.87
2023-03-29T04:43:41.411Z,7.60
2023-03-29T04:46:21.895Z,7.23
2023-03-29T04:49:09.452Z,6.93
2023-03-29T04:51:42.299Z,6.33
2023-03-29T04:54:10.844Z,7.17
2023-03-29T04:56:57.442Z,8.20
2023-03-29T04:59:27.512Z,8.40
2023-03-29T05:01:54.906Z,6.70
2023-03-29T05:04:22.843Z,6.50
2023-03-29T05:07:03.327Z,7.07
2023-03-29T05:09:32.569Z,8.10
2023-03-29T05:12:03.651Z,4.97
2023-03-29T05:14:38.484Z,7.43
2023-03-29T05:17:06.429Z,6.57
2023-03-29T05:19:36.399Z,7.70
2023-03-29T05:22:03.682Z,11.27
2023-03-29T05:24:32.645Z,15.07
2023-03-29T05:27:05.045Z,6.90
2023-03-29T05:29:35.016Z,5.77
2023-03-29T05:32:28.903Z,6.70
2023-03-29T05:34:56.853Z,6.50
2023-03-29T05:37:24.099Z,7.27
2023-03-29T05:40:06.056Z,7.43
2023-03-29T05:42:41.815Z,5.77
2023-03-29T05:45:11.797Z,7.27
2023-03-29T05:47:40.857Z,7.70
2023-03-29T05:50:09.813Z,6.27
2023-03-29T05:52:37.609Z,6.47
2023-03-29T05:55:05.466Z,7.70
2023-03-29T05:57:32.770Z,6.80
2023-03-29T06:00:00.043Z,9.33
2023-03-29T06:02:28.443Z,6.93
2023-03-29T06:04:57.278Z,6.60
2023-03-29T06:07:24.734Z,5.83
2023-03-29T06:10:10.926Z,9.13
2023-03-29T06:12:41.112Z,7.33
2023-03-29T06:15:10.155Z,5.93
2023-03-29T06:17:52.490Z,7.93
2023-03-29T06:20:20.602Z,6.57
2023-03-29T06:22:53.498Z,6.83
2023-03-29T06:25:20.870Z,6.30
2023-03-29T06:27:50.308Z,4.67
2023-03-29T06:30:20.830Z,6.87
2023-03-29T06:32:54.584Z,9.57
2023-03-29T06:35:48.839Z,5.10
2023-03-29T06:38:20.771Z,5.07
2023-03-29T06:41:11.333Z,6.97
2023-03-29T06:43:57.733Z,8.70
2023-03-29T06:46:32.351Z,7.97
2023-03-29T06:49:06.536Z,7.97
2023-03-29T06:52:03.166Z,5.07
2023-03-29T06:54:31.345Z,7.80
2023-03-29T06:57:04.871Z,5.63
2023-03-29T06:59:35.062Z,9.50
2023-03-29T07:02:13.289Z,6.20
2023-03-29T07:05:01.939Z,6.40
2023-03-29T07:07:53.400Z,6.67
2023-03-29T07:10:33.569Z,8.57
2023-03-29T07:13:30.504Z,7.90
2023-03-29T07:16:00.448Z,5.00
2023-03-29T07:18:38.917Z,7.67
2023-03-29T07:21:06.900Z,6.87
2023-03-29T07:23:34.442Z,6.60
2023-03-29T07:26:02.420Z,8.03
2023-03-29T07:28:30.301Z,7.07
2023-03-29T07:31:06.715Z,6.50
2023-03-29T07:33:39.722Z,8.67
2023-03-29T07:36:07.523Z,10.37
2023-03-29T07:38:37.122Z,5.93
2023-03-29T07:41:10.931Z,8.53
2023-03-29T07:43:51.877Z,6.47
2023-03-29T07:46:23.995Z,6.03
2023-03-29T07:48:51.593Z,5.77
2023-03-29T07:51:18.786Z,6.20
2023-03-29T07:53:49.742Z,5.67
2023-03-29T07:56:49.645Z,6.50
2023-03-29T07:59:43.148Z,7.03
2023-03-29T08:02:16.271Z,5.10
2023-03-29T08:04:49.654Z,7.00
2023-03-29T08:07:19.998Z,5.57
2023-03-29T08:10:06.874Z,4.53
2023-03-29T08:13:04.644Z,4.07
2023-03-29T08:15:42.080Z,6.50
2023-03-29T08:18:19.396Z,6.67
2023-03-29T08:20:46.802Z,7.40
2023-03-29T08:23:14.188Z,7.27
2023-03-29T08:26:02.213Z,5.57
2023-03-29T08:28:29.673Z,7.07
2023-03-29T08:30:57.257Z,7.33
2023-03-29T08:33:24.531Z,10.90
2023-03-29T08:36:01.931Z,4.40
2023-03-29T08:38:32.542Z,6.17
2023-03-29T08:41:00.124Z,8.97
2023-03-29T08:43:35.194Z,5.80
2023-03-29T08:46:35.194Z,6.63
2023-03-29T08:49:22.630Z,7.27
2023-03-29T08:51:53.622Z,6.60
2023-03-29T08:54:25.086Z,7.37
2023-03-29T08:57:32.213Z,7.47
2023-03-29T09:00:10.543Z,6.43
2023-03-29T09:02:39.063Z,5.50
2023-03-29T09:05:14.085Z,4.80
2023-03-29T09:07:51.699Z,7.53
2023-03-29T09:10:22.302Z,6.60
2023-03-29T09:12:52.762Z,7.87
2023-03-29T09:15:25.130Z,7.50
2023-03-29T09:18:15.414Z,6.93
2023-03-29T09:20:57.652Z,5.40
2023-03-29T09:23:34.021Z,6.83
2023-03-29T09:26:28.826Z,6.77
2023-03-29T09:29:32.647Z,5.13
2023-03-29T09:32:02.877Z,6.40
2023-03-29T09:34:38.452Z,7.13
2023-03-29T09:37:21.593Z,7.63
2023-03-29T09:39:52.724Z,7.90
2023-03-29T09:42:22.610Z,5.33
2023-03-29T09:44:57.597Z,5.13
2023-03-29T09:47:52.330Z,5.13
2023-03-29T09:50:30.862Z,6.53
2023-03-29T09:53:01.064Z,5.93
2023-03-29T09:55:32.223Z,6.93
2023-03-29T09:58:23.078Z,7.53
2023-03-29T10:00:53.040Z,8.60
2023-03-29T10:03:25.222Z,5.20
2023-03-29T10:06:13.265Z,5.93
2023-03-29T10:08:47.672Z,5.43
2023-03-29T10:11:23.442Z,8.30
2023-03-29T10:13:54.802Z,5.43
2023-03-29T10:16:26.160Z,6.03
2023-03-29T10:18:54.681Z,4.80
2023-03-29T10:21:23.700Z,4.87
2023-03-29T10:23:58.252Z,5.60
2023-03-29T10:26:26.735Z,4.60
2023-03-29T10:28:57.085Z,4.77
2023-03-29T10:31:25.708Z,4.73
2023-03-29T10:33:57.390Z,4.53
2023-03-29T10:36:26.675Z,4.53
2023-03-29T10:38:55.725Z,5.07
2023-03-29T10:41:23.768Z,4.73
2023-03-29T10:43:51.706Z,4.37
2023-03-29T10:46:22.065Z,5.40
2023-03-29T10:48:51.668Z,7.33
2023-03-29T10:51:19.759Z,5.10
2023-03-29T10:53:47.650Z,5.10
2023-03-29T10:56:14.928Z,4.80
2023-03-29T10:59:01.111Z,5.30
2023-03-29T11:01:36.174Z,5.87
2023-03-29T11:04:07.010Z,5.60
2023-03-29T11:06:45.657Z,7.43
2023-03-29T11:09:33.331Z,5.73
2023-03-29T11:12:16.685Z,7.70
2023-03-29T11:15:02.561Z,7.53
2023-03-29T11:17:43.452Z,6.50
2023-03-29T11:20:29.181Z,7.40
2023-03-29T11:23:01.637Z,5.20
2023-03-29T11:25:35.594Z,6.83
2023-03-29T11:28:02.931Z,7.33
2023-03-29T11:30:48.910Z,7.53
2023-03-29T11:33:19.740Z,7.17
2023-03-29T11:35:56.499Z,7.17
2023-03-29T11:38:28.244Z,7.87
2023-03-29T11:40:55.496Z,8.17
2023-03-29T11:43:48.756Z,8.13
2023-03-29T11:46:27.523Z,8.67
2023-03-29T11:48:57.216Z,10.87
2023-03-29T11:51:26.648Z,9.20
2023-03-29T11:53:57.000Z,7.90
2023-03-29T11:56:31.905Z,9.27
2023-03-29T11:59:01.520Z,9.30
2023-03-29T12:01:34.574Z,9.40
2023-03-29T12:04:07.987Z,9.20
2023-03-29T12:06:39.384Z,8.23
2023-03-29T12:09:25.563Z,9.17
2023-03-29T12:11:55.920Z,8.43
2023-03-29T12:14:28.651Z,10.97
2023-03-29T12:17:01.332Z,12.23
2023-03-29T12:19:38.651Z,13.67
2023-03-29T12:22:08.079Z,12.17
2023-03-29T12:24:40.512Z,10.20
2023-03-29T12:27:30.182Z,11.43
2023-03-29T12:30:06.810Z,10.93
2023-03-29T12:32:52.851Z,10.07
2023-03-29T12:35:46.307Z,11.07
2023-03-29T12:38:33.168Z,12.47
2023-03-29T12:41:21.682Z,10.67
2023-03-29T12:44:10.256Z,11.37
2023-03-29T12:46:58.905Z,13.17
2023-03-29T12:49:26.525Z,14.17
2023-03-29T12:51:55.619Z,10.57
2023-03-29T12:54:26.191Z,10.77
2023-03-29T12:56:58.539Z,12.23
2023-03-29T12:59:28.490Z,13.67
2023-03-29T13:02:07.906Z,10.43
2023-03-29T13:04:49.004Z,11.57
2023-03-29T13:07:36.499Z,11.63
2023-03-29T13:10:08.220Z,11.33
2023-03-29T13:12:35.447Z,14.63
2023-03-29T13:15:04.811Z,11.53
2023-03-29T13:17:38.941Z,12.37
2023-03-29T13:20:08.326Z,13.03
2023-03-29T13:22:44.645Z,13.43
2023-03-29T13:25:30.567Z,12.83
2023-03-29T13:28:01.198Z,14.80
2023-03-29T13:30:36.613Z,14.37
2023-03-29T13:33:09.160Z,13.70
2023-03-29T13:35:43.503Z,15.83
2023-03-29T13:38:20.476Z,13.97
2023-03-29T13:40:53.943Z,14.23
2023-03-29T13:43:31.185Z,13.93
2023-03-29T13:45:58.448Z,15.03
2023-03-29T13:48:27.364Z,14.23
2023-03-29T13:50:54.666Z,13.67
2023-03-29T13:53:34.791Z,15.13
2023-03-29T13:56:03.023Z,13.80
2023-03-29T13:58:44.514Z,14.03
2023-03-29T14:01:22.408Z,13.67
2023-03-29T14:03:51.871Z,12.37
2023-03-29T14:06:24.452Z,13.87
2023-03-29T14:08:52.568Z,12.67
2023-03-29T14:11:26.790Z,13.60
2023-03-29T14:13:55.037Z,13.47
2023-03-29T14:16:22.576Z,13.17
2023-03-29T14:18:52.183Z,12.37
2023-03-29T14:21:24.173Z,12.80
2023-03-29T14:23:55.284Z,12.93
2023-03-29T14:26:23.999Z,12.47
2023-03-29T14:28:52.658Z,14.20
2023-03-29T14:31:27.422Z,13.73
2023-03-29T14:33:56.267Z,12.97
2023-03-29T14:36:25.070Z,12.00
2023-03-29T14:39:13.097Z,10.47
2023-03-29T14:41:41.216Z,11.80
2023-03-29T14:44:08.700Z,12.10
2023-03-29T14:46:36.817Z,10.97
2023-03-29T14:49:06.301Z,10.93
2023-03-29T14:51:34.309Z,10.13
2023-03-29T14:54:02.935Z,11.43
2023-03-29T14:56:32.757Z,10.10
2023-03-29T14:59:00.670Z,12.23
2023-03-29T15:01:28.121Z,13.67
2023-03-29T15:04:09.274Z,12.20
2023-03-29T15:06:41.086Z,11.30
2023-03-29T15:09:12.097Z,11.63
2023-03-29T15:11:40.072Z,13.27
2023-03-29T15:14:15.468Z,12.57
2023-03-29T15:16:44.450Z,10.80
2023-03-29T15:19:17.691Z,11.17
2023-03-29T15:21:47.739Z,9.13
2023-03-29T15:24:22.701Z,10.17
2023-03-29T15:27:12.317Z,10.87
2023-03-29T15:29:43.172Z,10.23
2023-03-29T15:32:11.519Z,10.07
2023-03-29T15:34:38.861Z,8.43
2023-03-29T15:37:07.601Z,9.57
2023-03-29T15:39:44.765Z,9.83
2023-03-29T15:42:14.553Z,8.40
2023-03-29T15:44:43.779Z,9.67
2023-03-29T15:47:12.098Z,10.07
2023-03-29T15:49:39.426Z,8.60
2023-03-29T15:52:06.905Z,11.13
2023-03-29T15:54:34.952Z,8.30
2023-03-29T15:57:04.567Z,7.27
2023-03-29T15:59:32.486Z,7.07
2023-03-29T16:02:00.034Z,8.70
2023-03-29T16:04:27.689Z,7.93
2023-03-29T16:06:55.917Z,7.50
2023-03-29T16:09:23.486Z,9.93
2023-03-29T16:11:50.992Z,7.83
2023-03-29T16:14:22.843Z,8.43
2023-03-29T16:16:50.666Z,8.77
2023-03-29T16:22:07.536Z,9.53
2023-03-29T16:24:35.548Z,10.47
2023-03-29T16:27:02.890Z,12.13
2023-03-29T16:29:30.733Z,10.47
2023-03-29T16:31:58.217Z,9.93
2023-03-29T16:34:26.695Z,10.93
2023-03-29T16:36:54.246Z,11.83
2023-03-29T16:39:21.522Z,13.40
2023-03-29T16:41:50.043Z,11.83
2023-03-29T16:44:20.751Z,12.57
2023-03-29T16:46:50.369Z,12.27
2023-03-29T16:49:18.698Z,12.17
2023-03-29T16:51:49.397Z,12.13
2023-03-29T16:54:17.427Z,15.93
2023-03-29T16:56:44.754Z,12.43
2023-03-29T16:59:12.225Z,11.67
2023-03-29T17:01:40.584Z,14.30
2023-03-29T17:04:08.863Z,13.30
2023-03-29T17:06:36.388Z,13.50
2023-03-29T17:09:05.197Z,13.57
2023-03-29T17:11:32.672Z,14.77
2023-03-29T17:14:00.719Z,15.60
2023-03-29T17:16:29.120Z,15.30
2023-03-29T17:19:00.022Z,16.20
2023-03-29T17:21:28.946Z,14.37
2023-03-29T17:23:56.265Z,15.27
2023-03-29T17:26:23.742Z,16.03
2023-03-29T17:28:51.097Z,15.60
2023-03-29T17:31:19.492Z,14.80
2023-03-29T17:33:47.665Z,15.13
2023-03-29T17:36:15.089Z,16.50
2023-03-29T17:38:43.059Z,14.00
2023-03-29T17:41:11.085Z,14.77
2023-03-29T17:43:38.600Z,14.23
2023-03-29T17:46:06.300Z,13.50
2023-03-29T17:48:33.850Z,14.53
2023-03-29T17:51:01.146Z,16.33
2023-03-29T17:53:28.472Z,14.07
2023-03-29T17:55:56.009Z,15.50
2023-03-29T17:58:23.293Z,15.83
2023-03-29T18:00:50.732Z,14.33
2023-03-29T18:03:18.054Z,14.63
2023-03-29T18:05:45.536Z,12.93
2023-03-29T18:08:13.687Z,14.90
2023-03-29T18:10:41.364Z,15.17
2023-03-29T18:13:13.726Z,13.57
2023-03-29T18:15:45.081Z,12.40
2023-03-29T18:18:12.336Z,14.90
2023-03-29T18:20:39.805Z,11.33
2023-03-29T18:23:07.439Z,14.70
2023-03-29T18:25:34.763Z,12.27
2023-03-29T18:28:02.214Z,14.87
2023-03-29T18:30:29.437Z,13.63
2023-03-29T18:32:56.797Z,14.70
2023-03-29T18:35:24.145Z,13.03
2023-03-29T18:37:52.425Z,12.07
2023-03-29T18:40:24.604Z,11.50
2023-03-29T18:42:52.306Z,12.67
2023-03-29T18:45:19.720Z,11.70
2023-03-29T18:47:50.358Z,16.93
2023-03-29T18:50:20.721Z,12.47
2023-03-29T18:52:48.200Z,10.63
2023-03-29T18:55:15.799Z,12.13
2023-03-29T18:57:43.244Z,13.23
2023-03-29T19:00:11.933Z,12.67
2023-03-29T19:02:40.021Z,11.10
2023-03-29T19:05:08.608Z,11.47
2023-03-29T19:07:36.339Z,11.53
2023-03-29T19:10:05.091Z,10.17
2023-03-29T19:12:35.467Z,11.13
2023-03-29T19:15:02.708Z,11.83
2023-03-29T19:17:29.990Z,11.60
2023-03-29T19:19:57.422Z,13.10
2023-03-29T19:22:24.844Z,11.60
2023-03-29T19:24:52.063Z,11.30
2023-03-29T19:27:19.329Z,13.70
2023-03-29T19:29:48.055Z,11.27
2023-03-29T19:32:15.466Z,11.47
2023-03-29T19:34:42.657Z,10.40
2023-03-29T19:37:10.496Z,12.33
2023-03-29T19:39:37.797Z,9.73
2023-03-29T19:42:05.542Z,11.00
2023-03-29T19:44:34.336Z,11.10
2023-03-29T19:47:02.003Z,13.43
2023-03-29T19:49:29.273Z,11.67
2023-03-29T19:51:57.355Z,10.87
2023-03-29T19:54:26.205Z,10.63
2023-03-29T19:56:57.125Z,11.20
2023-03-29T19:59:25.351Z,13.50
2023-03-29T20:01:52.608Z,9.87
2023-03-29T20:04:22.576Z,13.60
2023-03-29T20:06:49.983Z,12.10
2023-03-29T20:09:17.274Z,13.60
2023-03-29T20:11:44.508Z,13.20
2023-03-29T20:14:12.267Z,13.20
2023-03-29T20:16:58.618Z,12.30
2023-03-29T20:19:26.742Z,11.40
2023-03-29T20:21:57.567Z,11.87
2023-03-29T20:24:25.932Z,11.70
2023-03-29T20:26:53.379Z,10.60
2023-03-29T20:29:20.811Z,12.13
2023-03-29T20:31:48.349Z,11.27
2023-03-29T20:34:18.016Z,12.73
2023-03-29T20:36:46.858Z,11.03
2023-03-29T20:39:17.647Z,11.40
2023-03-29T20:41:47.498Z,10.27
2023-03-29T20:44:16.922Z,14.30
2023-03-29T20:46:54.270Z,11.47
2023-03-29T20:49:26.235Z,11.43
2023-03-29T20:51:58.549Z,11.47
2023-03-29T20:54:26.489Z,13.83
2023-03-29T20:56:54.948Z,10.83
2023-03-29T20:59:40.986Z,13.87
2023-03-29T21:02:09.538Z,10.07
2023-03-29T21:04:36.864Z,12.43
2023-03-29T21:07:06.587Z,14.80
2023-03-29T21:09:35.756Z,11.90
2023-03-29T21:12:03.181Z,11.47
2023-03-29T21:14:32.767Z,10.47
2023-03-29T21:17:00.023Z,13.00
2023-03-29T21:19:27.337Z,11.43
2023-03-29T21:21:54.844Z,11.07
2023-03-29T21:24:22.334Z,11.43
2023-03-29T21:26:49.692Z,13.20
2023-03-29T21:29:16.842Z,11.83
2023-03-29T21:31:44.586Z,10.10
2023-03-29T21:34:11.884Z,10.87
2023-03-29T21:36:39.830Z,8.97
2023-03-29T21:39:07.118Z,10.10
2023-03-29T21:41:34.677Z,9.50
2023-03-29T21:44:01.897Z,10.07
2023-03-29T21:46:29.121Z,12.43
2023-03-29T21:48:56.605Z,9.67
2023-03-29T21:51:23.784Z,10.27
2023-03-29T21:53:51.103Z,9.57
2023-03-29T21:56:18.471Z,11.10
2023-03-29T21:58:45.920Z,8.57
2023-03-29T22:01:13.391Z,10.13
2023-03-29T22:03:40.646Z,9.77
2023-03-29T22:06:09.711Z,9.83
2023-03-29T22:08:40.842Z,9.03
2023-03-29T22:11:09.492Z,11.17
2023-03-29T22:13:37.373Z,12.13
2023-03-29T22:16:04.819Z,10.70
2023-03-29T22:18:46.950Z,10.13
2023-03-29T22:21:15.632Z,8.37
2023-03-29T22:23:43.623Z,9.90
2023-03-29T22:26:12.131Z,8.90
2023-03-29T22:28:40.421Z,11.47
2023-03-29T22:31:11.301Z,10.57
2023-03-29T22:33:39.025Z,10.00
2023-03-29T22:36:17.172Z,8.93
2023-03-29T22:38:44.926Z,9.43
2023-03-29T22:41:12.740Z,10.17
2023-03-29T22:43:40.086Z,9.67
2023-03-29T22:46:08.474Z,11.07
2023-03-29T22:48:36.056Z,10.07
2023-03-29T22:51:03.836Z,9.47
2023-03-29T22:53:31.479Z,8.27
2023-03-29T22:55:58.821Z,11.37
2023-03-29T22:58:26.057Z,8.13
2023-03-29T23:00:53.323Z,9.97
2023-03-29T23:03:23.170Z,8.63
2023-03-29T23:05:55.022Z,8.27
2023-03-29T23:08:22.671Z,9.90
2023-03-29T23:10:49.856Z,9.03
2023-03-29T23:13:23.509Z,9.13
2023-03-29T23:15:51.654Z,9.50
2023-03-29T23:18:21.118Z,10.53
2023-03-29T23:20:52.864Z,9.20
2023-03-29T23:23:20.477Z,9.27
2023-03-29T23:25:48.913Z,8.40
2023-03-29T23:28:17.055Z,8.97
2023-03-29T23:30:44.596Z,10.13
2023-03-29T23:33:14.404Z,9.50
2023-03-29T23:35:41.665Z,11.67
2023-03-29T23:38:09.085Z,9.83
2023-03-29T23:40:36.544Z,8.47
2023-03-29T23:43:04.091Z,8.63
2023-03-29T23:45:31.752Z,9.07
2023-03-29T23:47:59.011Z,8.90
2023-03-29T23:50:28.669Z,10.10
2023-03-29T23:52:56.051Z,8.77
2023-03-29T23:55:23.566Z,9.00
2023-03-29T23:57:51.532Z,9.23
